Terminal Aerodrome Forecast
Issued by NWS Pittsburgh, PA

Current Version | Previous Version | Graphics & Text | Print | Product List | Glossary On
Versions: 1 2 3 4 5 6 7 8 9 10 11 12 13 14 15 16 17 18 19 20 21 22 23 24 25 26 27 28 29 30
000
FTUS41 KPBZ 302131 AAD
TAFPIT
TAF AMD
KPIT 302131Z 3022/0124 VRB20G45KT 2SM +TSRA BKN015CB
     FM302215 23008KT P6SM VCSH BKN035
     FM010100 23005KT P6SM BKN040
     FM011000 25005KT 5SM BR BKN020
     FM011600 27009KT P6SM BKN035=

USA.gov is the U.S. government's official web portal to all federal, state and local government web resources and services.